Latest Weather Observations for Cape Sorell

IDT60801

Issued at 1:32 pm EDT Thursday 23 February 2017 (issued every 30 minutes, with the page automatically refreshed every 10 minutes)

About weather observations | Map of weather stations | Latest weather observations for TAS | Other Formats
Station Details ID: 097000 Name: CAPE SORELL Lat: -42.20 Lon: 145.17 Height: 19.3 m
Data from the previous 72 hours. | See also: Recent months at Cape Sorell
Date/Time
EDT
Temp
°C
App
Temp
°C
Dew
Point
°C
Rel
Hum
%
Delta-T
°C
Wind Press
QNH
hPa
Press
MSL
hPa
Rain since
9am
mm
Dir  Spd
km/h
Gust
km/h
Spd
kts
Gust
kts
23/01:30pm 16.6 14.1 14.2 86 1.4 NW 20 26 11 14 1014.6 1014.6 1.0
23/01:00pm 16.9 13.4 14.5 86 1.4 WNW 26 32 14 17 1014.3 1014.3 1.0
23/12:30pm 15.5 11.2 13.2 86 1.3 WNW 28 35 15 19 1013.8 1013.8 1.0
23/12:00pm 16.1 12.1 13.0 82 1.7 WNW 26 33 14 18 1013.5 1013.5 0.0
23/11:30am 16.8 13.4 13.7 82 1.8 NW 24 37 13 20 1013.2 1013.2 0.0
23/11:00am 17.7 14.8 15.0 84 1.6 NW 24 28 13 15 1012.4 1012.4 0.0
23/10:30am 16.7 13.1 14.2 85 1.4 NW 26 35 14 19 1012.1 1012.1 0.0
23/10:00am 16.6 13.5 14.4 87 1.3 NW 24 35 13 19 1011.7 1011.7 0.0
23/09:30am 16.1 11.3 13.9 87 1.2 NNW 32 39 17 21 1011.0 1011.0 0.0
23/09:00am 16.1 11.3 13.9 87 1.2 NNW 32 39 17 21 1010.7 1010.7 0.6
23/08:30am 16.1 10.7 13.9 87 1.2 NNW 35 48 19 26 1010.0 1010.0 0.6
23/08:00am 16.1 9.5 13.8 86 1.3 NNW 41 54 22 29 1009.2 1009.2 0.6
23/07:30am 15.9 9.3 13.6 86 1.3 NNW 41 56 22 30 1008.5 1008.5 0.6
23/07:00am 15.9 7.5 13.6 86 1.3 N 50 59 27 32 1007.7 1007.7 0.6
23/06:30am 16.0 9.6 13.1 83 1.6 NNW 39 54 21 29 1007.2 1007.2 0.6
23/06:00am 17.1 8.9 13.0 77 2.3 N 48 61 26 33 1007.1 1007.1 0.0
23/05:30am 17.4 11.3 13.1 76 2.4 N 37 48 20 26 1006.9 1006.9 0.0
23/05:00am 17.7 10.2 12.8 73 2.7 N 44 56 24 30 1006.5 1006.5 0.0
23/04:44am 17.8 10.9 12.9 73 2.7 N 41 65 22 35 1006.3 1006.3 0.0
23/04:30am 17.5 11.3 12.8 74 2.6 N 37 46 20 25 1006.4 1006.4 0.0
23/04:00am 17.7 10.8 12.8 73 2.7 N 41 50 22 27 1006.3 1006.3 0.0
23/03:30am 18.1 10.3 13.0 72 2.9 N 46 56 25 30 1006.2 1006.2 0.0
23/03:00am 18.3 12.3 13.2 72 2.9 NNW 37 48 20 26 1006.5 1006.5 0.0
23/02:30am 19.1 12.1 13.7 71 3.1 N 43 54 23 29 1006.1 1006.1 0.0
23/02:00am 18.7 13.8 13.6 72 2.9 NNW 32 41 17 22 1006.0 1006.0 0.0
23/01:30am 19.6 13.8 14.0 70 3.2 N 37 56 20 30 1005.4 1005.4 0.0
23/01:27am 19.3 13.9 13.9 71 3.1 N 35 56 19 30 1005.4 1005.4 0.0
23/01:00am 18.3 14.1 13.4 73 2.8 N 28 37 15 20 1005.6 1005.6 0.0
23/12:30am 18.5 13.7 12.9 70 3.1 N 30 35 16 19 1005.7 1005.7 0.0
23/12:00am 19.4 14.4 12.2 63 4.0 NNW 30 39 16 21 1006.0 1006.0 0.0
 
Date/Time
EDT
Temp
°C
App
Temp
°C
Dew
Point
°C
Rel
Hum
%
Delta-T
°C
Wind Press
QNH
hPa
Press
MSL
hPa
Rain since
9am
mm
Dir  Spd
km/h
Gust
km/h
Spd
kts
Gust
kts
22/11:36pm 21.1 15.1 10.9 52 5.6 NNW 33 57 18 31 1005.9 1005.9 0.0
22/11:30pm 21.8 16.3 9.3 45 6.7 NNW 28 52 15 28 1005.3 1005.3 0.0
22/11:27pm 20.3 16.5 11.0 55 5.1 N 22 52 12 28 1006.1 1006.1 0.0
22/11:00pm 21.3 16.6 9.2 46 6.5 NE 24 32 13 17 1004.7 1004.7 0.0
22/10:30pm 20.9 14.6 9.8 49 6.0 NE 33 41 18 22 1004.9 1004.9 0.0
22/10:00pm 21.3 15.3 8.6 44 6.7 NE 30 41 16 22 1005.3 1005.3 0.0
22/09:30pm 21.2 13.3 9.4 47 6.3 NE 41 48 22 26 1005.4 1005.4 0.0
22/09:00pm 21.0 13.2 9.9 49 6.0 NNE 41 48 22 26 1006.0 1006.0 0.0
22/08:30pm 20.9 14.5 10.7 52 5.6 NNE 35 43 19 23 1006.5 1006.5 0.0
22/08:00pm 20.9 14.6 11.0 53 5.5 NE 35 43 19 23 1006.7 1006.7 0.0
22/07:30pm 21.3 13.9 11.1 52 5.6 NNE 41 48 22 26 1006.6 1006.6 0.0
22/07:00pm 21.4 15.1 11.1 52 5.7 NNE 35 46 19 25 1006.8 1006.8 0.0
22/06:30pm 21.2 15.4 11.5 54 5.4 NNE 33 41 18 22 1007.5 1007.5 0.0
22/06:00pm 21.5 15.9 12.1 55 5.3 N 33 39 18 21 1008.4 1008.4 0.0
22/05:30pm 21.1 16.6 12.5 58 4.9 N 28 33 15 18 1008.6 1008.6 0.0
22/05:00pm 21.8 15.9 11.2 51 5.9 N 33 44 18 24 1008.5 1008.5 0.0
22/04:30pm 21.5 17.0 12.6 57 5.0 N 28 39 15 21 1008.5 1008.5 0.0
22/04:00pm 22.1 16.8 12.4 54 5.5 N 32 39 17 21 1008.6 1008.6 0.0
22/03:30pm 22.2 15.0 11.9 52 5.8 NNE 41 48 22 26 1008.6 1008.6 0.0
22/03:00pm 22.0 14.3 12.0 53 5.6 NNE 44 52 24 28 1009.3 1009.3 0.0
22/02:30pm 21.6 14.0 11.9 54 5.4 NNE 43 52 23 28 1009.6 1009.6 0.0
22/02:00pm 21.6 14.4 11.9 54 5.4 NNE 41 50 22 27 1009.9 1009.9 0.0
22/01:30pm 21.1 13.9 12.0 56 5.1 NNE 41 50 22 27 1010.3 1010.3 0.0
22/01:00pm 20.8 13.5 11.7 56 5.1 NNE 41 50 22 27 1010.9 1010.9 0.0
22/12:30pm 20.7 13.9 11.9 57 4.9 NNE 39 46 21 25 1011.4 1011.4 0.0
22/12:00pm 20.2 13.2 11.4 57 4.9 NNE 39 46 21 25 1011.7 1011.7 0.0
22/11:30am 20.0 13.2 10.7 55 5.1 NNE 37 44 20 24 1012.1 1012.1 0.0
22/11:00am 19.2 11.8 9.9 55 5.0 NNE 39 44 21 24 1012.3 1012.3 0.0
22/10:30am 19.1 11.1 9.0 52 5.3 NNE 41 50 22 27 1012.7 1012.7 0.0
22/10:00am 18.3 11.8 9.1 55 4.8 NNE 33 41 18 22 1012.9 1012.9 0.0
22/09:30am 16.7 11.6 7.6 55 4.6 NE 24 32 13 17 1013.4 1013.4 0.0
22/09:00am 15.4 11.1 7.7 60 3.8 NE 20 26 11 14 1013.8 1013.8 0.0
22/08:30am 15.7 10.5 8.7 63 3.6 NE 26 32 14 17 1013.8 1013.8 0.0
22/08:00am 15.7 10.3 9.4 66 3.3 NNE 28 33 15 18 1013.6 1013.6 0.0
22/07:30am 15.2 9.3 8.9 66 3.2 NNE 30 35 16 19 1013.9 1013.9 0.0
22/07:00am 15.2 8.8 9.3 68 3.0 NNE 33 39 18 21 1013.8 1013.8 0.0
22/06:30am 13.2 9.5 9.5 78 1.9 NE 19 20 10 11 1013.8 1013.8 0.0
22/06:00am 12.0 8.6 9.0 82 1.5 NE 17 20 9 11 1014.0 1014.0 0.0
22/05:30am 10.6 7.0 8.4 86 1.1 ENE 17 20 9 11 1013.9 1013.9 0.0
22/05:00am 10.5 6.5 8.4 87 1.0 ENE 19 24 10 13 1014.1 1014.1 0.0
22/04:30am 10.7 6.6 8.6 87 1.0 ENE 20 24 11 13 1014.4 1014.4 0.0
22/04:00am 10.9 7.4 8.8 87 1.0 NE 17 22 9 12 1015.0 1015.0 0.0
22/03:30am 10.8 7.7 8.7 87 1.0 NE 15 19 8 10 1015.5 1015.5 0.0
22/03:00am 10.0 6.7 7.9 87 1.0 ENE 15 17 8 9 1015.8 1015.7 0.0
22/02:30am 10.2 7.2 7.8 85 1.2 ENE 13 15 7 8 1016.5 1016.4 0.0
22/02:00am 10.4 7.0 7.6 83 1.3 ENE 15 15 8 8 1017.0 1016.9 0.0
22/01:30am 10.9 8.3 7.6 80 1.6 ENE 11 13 6 7 1017.6 1017.5 0.0
22/01:00am 10.9 8.9 7.0 77 1.8 ENE 7 9 4 5 1018.0 1017.9 0.0
22/12:30am 11.3 9.5 7.0 75 2.1 ENE 6 6 3 3 1018.1 1018.0 0.0
22/12:00am 11.3 9.8 6.8 74 2.1 E 4 4 2 2 1018.5 1018.4 0.0
 
Date/Time
EDT
Temp
°C
App
Temp
°C
Dew
Point
°C
Rel
Hum
%
Delta-T
°C
Wind Press
QNH
hPa
Press
MSL
hPa
Rain since
9am
mm
Dir  Spd
km/h
Gust
km/h
Spd
kts
Gust
kts
21/11:30pm 10.9 8.7 6.3 73 2.2 ESE 7 7 4 4 1018.2 1018.1 0.0
21/11:00pm 11.1 9.2 6.5 73 2.2 ESE 6 7 3 4 1018.6 1018.5 0.0
21/10:30pm 11.6 10.1 6.7 72 2.3 SE 4 6 2 3 1018.8 1018.7 0.0
21/10:00pm 12.4 11.8 7.5 72 2.4 CALM 0 2 0 1 1019.2 1019.1 0.0
21/09:30pm 12.2 10.4 7.1 71 2.5 SSW 6 7 3 4 1019.2 1019.1 0.0
21/09:00pm 12.5 10.7 7.2 70 2.6 SW 6 9 3 5 1019.1 1019.0 0.0
21/08:30pm 12.9 11.0 7.4 69 2.7 SSW 7 11 4 6 1019.2 1019.1 0.0
21/08:00pm 13.6 11.3 7.6 67 2.9 SW 9 13 5 7 1019.1 1019.0 0.0
21/07:30pm 15.0 12.8 8.0 63 3.5 WSW 9 13 5 7 1019.1 1019.0 0.0
21/07:00pm 15.7 13.6 8.4 62 3.7 SW 9 13 5 7 1018.8 1018.7 0.0
21/06:30pm 15.9 14.2 8.2 60 3.9 SW 7 11 4 6 1018.9 1018.8 0.0
21/06:00pm 15.8 14.2 8.1 60 3.9 SSW 6 9 3 5 1018.7 1018.6 0.0
21/05:30pm 16.8 14.8 8.8 59 4.1 WSW 9 11 5 6 1018.9 1018.8 0.0
21/05:00pm 16.5 14.5 8.5 59 4.1 SW 9 11 5 6 1019.0 1018.9 0.0
21/04:30pm 16.8 14.8 8.5 58 4.2 WSW 9 13 5 7 1019.3 1019.2 0.0
21/04:00pm 16.6 14.6 8.6 59 4.1 WSW 9 15 5 8 1019.5 1019.4 0.0
21/03:30pm 16.9 15.1 9.3 61 4.0 WSW 9 13 5 7 1019.4 1019.3 0.0
21/03:00pm 17.6 15.9 9.8 60 4.1 WSW 9 13 5 7 1019.7 1019.6 0.0
21/02:30pm 17.1 15.1 8.5 57 4.4 WSW 9 11 5 6 1019.9 1019.8 0.0
21/02:00pm 17.1 15.1 8.5 57 4.4 SW 9 13 5 7 1019.9 1019.8 0.0
21/01:30pm 16.6 14.5 8.1 57 4.3 SW 9 13 5 7 1020.2 1020.1 0.0
21/01:00pm 16.6 13.7 8.3 58 4.2 SW 13 17 7 9 1020.3 1020.2 0.0
21/12:30pm 17.1 14.7 10.2 64 3.7 SW 13 17 7 9 1020.5 1020.4 0.0
21/12:00pm 15.9 13.4 9.6 66 3.3 SSW 13 19 7 10 1020.4 1020.3 0.0
21/11:30am 15.4 12.8 9.3 67 3.1 SW 13 17 7 9 1020.3 1020.2 0.0
21/11:00am 15.4 12.0 9.1 66 3.2 SSW 17 20 9 11 1020.2 1020.1 0.0
21/10:30am 14.9 11.8 8.8 67 3.1 SSW 15 17 8 9 1020.0 1019.9 0.0
21/10:00am 14.8 11.8 9.4 70 2.8 SSW 15 17 8 9 1019.7 1019.6 0.0
21/09:30am 13.1 9.9 8.4 73 2.3 SSW 15 19 8 10 1019.4 1019.3 0.0
21/09:00am 13.5 10.1 9.0 74 2.3 SSW 17 22 9 12 1019.3 1019.2 0.2
21/08:30am 13.1 9.7 9.0 76 2.1 SSW 17 22 9 12 1018.9 1018.8 0.2
21/08:00am 12.9 8.9 9.2 78 1.9 SSW 20 24 11 13 1018.5 1018.4 0.2
21/07:30am 12.8 8.2 9.6 81 1.6 SSW 24 28 13 15 1018.0 1017.9 0.2
21/07:00am 12.8 7.5 10.0 83 1.4 SSW 28 33 15 18 1017.5 1017.4 0.2
21/06:30am 12.4 8.9 10.1 86 1.2 SSW 19 33 10 18 1017.4 1017.3 0.2
21/06:00am 12.2 11.1 9.9 86 1.2 ENE 6 7 3 4 1017.2 1017.1 0.2
21/05:30am 12.3 11.6 10.0 86 1.2 ENE 4 6 2 3 1016.7 1016.6 0.2
21/05:00am 12.3 11.2 9.9 85 1.2 ENE 6 7 3 4 1016.6 1016.5 0.2
21/04:30am 12.3 11.1 9.7 84 1.3 E 6 7 3 4 1016.0 1015.9 0.2
21/04:00am 12.5 11.3 9.7 83 1.4 E 6 7 3 4 1015.9 1015.8 0.2
21/03:30am 12.6 10.8 9.6 82 1.5 E 9 11 5 6 1015.6 1015.6 0.2
21/03:00am 12.4 10.6 9.4 82 1.5 ESE 9 11 5 6 1015.6 1015.6 0.2
21/02:30am 12.0 10.0 8.8 81 1.6 ESE 9 13 5 7 1015.3 1015.3 0.2
21/02:00am 11.9 9.5 8.7 81 1.6 ESE 11 15 6 8 1015.2 1015.2 0.2
21/01:30am 12.1 10.1 8.8 80 1.6 SE 9 13 5 7 1015.2 1015.2 0.2
21/01:00am 11.8 9.0 8.5 80 1.6 SE 13 17 7 9 1015.1 1015.1 0.2
21/12:30am 11.9 9.1 8.7 81 1.6 SE 13 19 7 10 1015.1 1015.1 0.2
21/12:00am 12.4 9.0 9.2 81 1.6 SSE 17 20 9 11 1015.1 1015.1 0.2
 
Date/Time
EDT
Temp
°C
App
Temp
°C
Dew
Point
°C
Rel
Hum
%
Delta-T
°C
Wind Press
QNH
hPa
Press
MSL
hPa
Rain since
9am
mm
Dir  Spd
km/h
Gust
km/h
Spd
kts
Gust
kts
20/11:30pm 12.7 10.1 9.3 80 1.7 SSE 13 17 7 9 1015.0 1015.0 0.2
20/11:00pm 12.9 9.6 9.4 79 1.8 SSE 17 22 9 12 1014.6 1014.6 0.2
20/10:30pm 13.9 10.4 10.1 78 2.0 SSE 19 24 10 13 1014.4 1014.4 0.2
20/10:00pm 14.2 10.6 10.4 78 2.0 S 20 28 11 15 1014.1 1014.1 0.2
20/09:30pm 14.3 9.6 10.7 79 1.9 S 26 35 14 19 1013.9 1013.9 0.2
20/09:00pm 14.4 8.0 10.8 79 1.9 S 35 44 19 24 1013.3 1013.3 0.2
20/08:30pm 14.9 8.2 10.9 77 2.1 S 37 46 20 25 1012.7 1012.7 0.2
20/08:00pm 15.2 8.8 10.8 75 2.3 S 35 43 19 23 1012.2 1012.2 0.2
20/07:30pm 15.6 9.3 11.0 74 2.5 SSW 35 43 19 23 1011.7 1011.7 0.2
20/07:00pm 16.3 10.7 11.5 73 2.6 SSW 32 37 17 20 1011.3 1011.3 0.2
20/06:30pm 16.2 10.5 11.2 72 2.7 SSW 32 35 17 19 1010.9 1010.9 0.2
20/06:00pm 16.8 11.2 11.5 71 2.9 SW 32 35 17 19 1010.5 1010.5 0.2
20/05:30pm 17.0 11.4 11.5 70 3.0 SW 32 35 17 19 1010.3 1010.3 0.2
20/05:00pm 17.6 12.6 12.1 70 3.0 SW 30 33 16 18 1010.0 1010.0 0.2
20/04:30pm 17.0 11.4 11.5 70 3.0 SSW 32 37 17 20 1009.8 1009.8 0.2
20/04:00pm 17.3 11.8 11.8 70 3.0 SSW 32 35 17 19 1009.7 1009.7 0.2
20/03:30pm 17.5 12.7 11.8 69 3.1 SSW 28 32 15 17 1009.5 1009.5 0.2
20/03:00pm 17.3 13.2 11.6 69 3.1 SW 24 30 13 16 1009.5 1009.5 0.2
20/02:30pm 17.1 13.4 11.6 70 3.0 SSW 22 28 12 15 1009.6 1009.6 0.2
20/02:00pm 17.0 13.2 12.3 74 2.6 SSW 24 30 13 16 1009.5 1009.5 0.2

Other Formats:

Comma delimited format used in spreadsheet applications
http://www.bom.gov.au/fwo/IDT60801/IDT60801.94974.axf

JavaScript Object Notation format (JSON) in row-major order
http://www.bom.gov.au/fwo/IDT60801/IDT60801.94974.json